Time;durP1;ratioP1;P1;durP2;ratioP2;P2;SDS_P1;SDS_P2;PMS_P1;PMS_P2;Temp;Humidity;BMP_temperature;BMP_pressure;BME280_temperature;BME280_humidity;BME280_pressure;Samples;Min_cycle;Max_cycle;Signal;HPM_P1;HPM_P2
2023/10/14 00:00:46;;;;;;;4.00;3.57;;;26.50;44.40;;;;;;5032199;28;20586;-64
2023/10/14 00:03:27;;;;;;;8.87;3.80;;;26.60;44.60;;;;;;5033674;28;20298;-64
2023/10/14 00:05:54;;;;;;;7.37;3.70;;;26.50;44.80;;;;;;5031871;28;20213;-64
2023/10/14 00:08:26;;;;;;;4.60;4.20;;;26.60;45.00;;;;;;5032070;28;20208;-63
2023/10/14 00:10:53;;;;;;;6.20;4.00;;;26.70;44.80;;;;;;5035578;28;20670;-64
2023/10/14 00:13:20;;;;;;;6.00;4.13;;;26.70;44.80;;;;;;5051196;28;20204;-64
2023/10/14 00:15:46;;;;;;;8.87;4.33;;;26.70;44.90;;;;;;5051632;28;20745;-63
2023/10/14 00:18:14;;;;;;;6.33;4.00;;;26.70;45.00;;;;;;5051915;28;20214;-64
2023/10/14 00:20:42;;;;;;;5.60;4.10;;;26.80;45.00;;;;;;5052149;28;20236;-64
2023/10/14 00:23:11;;;;;;;8.63;4.20;;;26.80;45.60;;;;;;5053757;28;20204;-64
2023/10/14 00:25:39;;;;;;;6.87;3.90;;;26.80;45.20;;;;;;5058335;28;20217;-64
2023/10/14 00:28:12;;;;;;;5.67;4.03;;;26.80;45.10;;;;;;5054095;28;20205;-64
2023/10/14 00:30:40;;;;;;;10.40;4.13;;;26.80;45.20;;;;;;5055685;28;20278;-63
2023/10/14 00:33:07;;;;;;;7.80;3.80;;;26.90;45.20;;;;;;5058041;28;20659;-63
2023/10/14 00:35:39;;;;;;;4.27;3.87;;;26.90;45.20;;;;;;5073596;28;20297;-64
2023/10/14 00:38:15;;;;;;;6.93;4.00;;;26.90;45.30;;;;;;5057419;28;20716;-64
2023/10/14 00:40:46;;;;;;;8.33;4.07;;;26.90;45.50;;;;;;5055594;28;20203;-64
2023/10/14 00:43:13;;;;;;;6.23;4.07;;;26.90;45.70;;;;;;5055769;28;20259;-63
2023/10/14 00:45:44;;;;;;;6.17;3.73;;;26.90;45.70;;;;;;5068521;28;20220;-64
2023/10/14 00:48:19;;;;;;;4.43;3.80;;;26.90;45.70;;;;;;5066942;28;20691;-64
2023/10/14 00:50:46;;;;;;;7.80;4.03;;;26.80;45.90;;;;;;5074011;28;20560;-64
2023/10/14 00:53:14;;;;;;;6.90;4.47;;;26.80;46.30;;;;;;5066270;28;20198;-64
2023/10/14 00:55:53;;;;;;;6.90;4.17;;;26.80;46.50;;;;;;5058134;28;20234;-64
2023/10/14 00:58:23;;;;;;;7.83;4.37;;;26.80;46.60;;;;;;5054910;28;20198;-64
2023/10/14 01:00:59;;;;;;;6.73;4.40;;;26.80;46.70;;;;;;5042489;28;20591;-64
2023/10/14 01:03:30;;;;;;;8.40;4.60;;;26.80;47.50;;;;;;5035180;28;20210;-64
2023/10/14 01:06:07;;;;;;;5.20;4.10;;;26.70;47.20;;;;;;5056600;28;20309;-64
2023/10/14 01:08:38;;;;;;;6.77;4.37;;;26.70;47.60;;;;;;5070504;28;20206;-63
2023/10/14 01:11:07;;;;;;;6.67;4.40;;;26.60;47.80;;;;;;5058207;28;20610;-64
2023/10/14 01:13:35;;;;;;;6.17;4.63;;;26.60;47.90;;;;;;5054252;28;20701;-64
2023/10/14 01:16:03;;;;;;;5.37;4.23;;;26.70;48.10;;;;;;5057234;28;20214;-63
2023/10/14 01:18:34;;;;;;;7.10;4.27;;;26.70;48.00;;;;;;5071810;28;20233;-64
2023/10/14 01:21:01;;;;;;;5.60;4.67;;;26.70;48.30;;;;;;5063464;28;20706;-64
2023/10/14 01:23:29;;;;;;;5.97;4.77;;;26.70;48.30;;;;;;5057592;28;20290;-64
2023/10/14 01:26:03;;;;;;;6.17;4.50;;;26.70;49.00;;;;;;5072649;28;20716;-64
2023/10/14 01:28:30;;;;;;;6.43;4.10;;;26.70;48.40;;;;;;5054712;28;20210;-64
2023/10/14 01:31:34;;;;;;;5.57;4.27;;;26.70;48.50;;;;;;5062515;28;20223;-64
2023/10/14 01:34:01;;;;;;;4.90;4.40;;;26.70;48.80;;;;;;5072434;28;20195;-63
2023/10/14 01:36:32;;;;;;;8.27;4.73;;;26.60;49.00;;;;;;5073256;28;20631;-65
2023/10/14 01:39:04;;;;;;;6.03;4.90;;;26.60;49.10;;;;;;5056654;28;20202;-64
2023/10/14 01:41:34;;;;;;;6.43;4.87;;;26.60;49.30;;;;;;5052653;28;20223;-64
2023/10/14 01:44:05;;;;;;;7.57;5.07;;;26.50;49.50;;;;;;5059041;28;20200;-64
2023/10/14 01:46:34;;;;;;;4.57;4.17;;;26.50;49.80;;;;;;5071972;28;20245;-64
2023/10/14 01:49:10;;;;;;;6.53;4.97;;;26.50;49.80;;;;;;5053367;28;20202;-64
2023/10/14 01:51:37;;;;;;;7.23;4.30;;;26.50;49.80;;;;;;5053356;28;20628;-64
2023/10/14 01:54:07;;;;;;;7.97;4.67;;;26.40;50.10;;;;;;5052741;28;20266;-63
2023/10/14 01:56:34;;;;;;;5.97;4.63;;;26.40;50.40;;;;;;5043375;28;20239;-63
2023/10/14 01:59:02;;;;;;;9.47;5.03;;;26.40;50.50;;;;;;5047883;28;20689;-64
2023/10/14 02:01:34;;;;;;;8.93;4.90;;;26.30;50.80;;;;;;5057665;28;20332;-63
2023/10/14 02:04:02;;;;;;;7.00;4.67;;;26.30;50.70;;;;;;5077312;28;20201;-64
2023/10/14 02:06:31;;;;;;;6.87;4.90;;;26.30;50.90;;;;;;5078068;28;20271;-64
2023/10/14 02:09:00;;;;;;;7.07;4.57;;;26.30;51.10;;;;;;5078550;28;20230;-64
2023/10/14 02:11:33;;;;;;;5.90;4.80;;;26.30;51.00;;;;;;5077591;28;20226;-65
2023/10/14 02:14:06;;;;;;;7.33;5.03;;;26.30;51.10;;;;;;5075143;28;20206;-64
2023/10/14 02:16:40;;;;;;;8.27;5.30;;;26.20;51.30;;;;;;5057654;28;20252;-64
2023/10/14 02:19:18;;;;;;;6.53;5.20;;;26.20;51.50;;;;;;5058190;28;20212;-63
2023/10/14 02:21:57;;;;;;;5.83;5.20;;;26.20;51.60;;;;;;5055310;28;20333;-63
2023/10/14 02:24:25;;;;;;;8.33;4.80;;;26.20;51.60;;;;;;5050662;28;20464;-63
2023/10/14 02:26:53;;;;;;;6.60;5.00;;;26.20;51.80;;;;;;5050453;28;20743;-64
2023/10/14 02:29:23;;;;;;;7.90;5.17;;;26.20;51.90;;;;;;5056881;28;20202;-64
2023/10/14 02:31:51;;;;;;;6.73;4.70;;;26.20;52.10;;;;;;5068962;28;20314;-63
2023/10/14 02:34:18;;;;;;;8.40;5.03;;;26.20;52.20;;;;;;5052860;28;20203;-64
2023/10/14 02:36:49;;;;;;;6.33;4.77;;;26.20;52.40;;;;;;5051953;28;20222;-63
2023/10/14 02:39:16;;;;;;;6.03;4.80;;;26.20;52.60;;;;;;5050950;28;20227;-63
2023/10/14 02:41:57;;;;;;;8.23;5.17;;;26.10;52.90;;;;;;5051451;28;20228;-64
2023/10/14 02:44:30;;;;;;;8.53;5.33;;;26.00;53.00;;;;;;5056149;28;20338;-64
2023/10/14 02:47:02;;;;;;;7.17;4.87;;;26.10;53.00;;;;;;5051258;28;20705;-63
2023/10/14 02:49:35;;;;;;;5.63;4.77;;;26.10;53.30;;;;;;5051113;28;20206;-64
2023/10/14 02:52:08;;;;;;;8.00;4.93;;;26.10;53.20;;;;;;5050679;28;20283;-64
2023/10/14 02:54:35;;;;;;;5.90;5.03;;;26.10;53.50;;;;;;5071054;28;20194;-64
2023/10/14 02:57:12;;;;;;;6.93;4.87;;;26.00;53.30;;;;;;5072005;28;20311;-63
2023/10/14 02:59:44;;;;;;;9.93;5.30;;;26.00;53.40;;;;;;5070836;28;20210;-63
2023/10/14 03:02:16;;;;;;;6.23;5.20;;;26.00;53.60;;;;;;5060725;28;20244;-64
2023/10/14 03:04:48;;;;;;;6.20;4.53;;;26.00;53.60;;;;;;5070904;28;20225;-64
2023/10/14 03:07:23;;;;;;;6.60;4.37;;;26.10;53.50;;;;;;5071082;28;20291;-63
2023/10/14 03:09:51;;;;;;;5.83;4.87;;;26.10;53.70;;;;;;5063973;28;20675;-64
2023/10/14 03:12:19;;;;;;;10.37;5.60;;;26.10;53.60;;;;;;5035649;28;20209;-64
2023/10/14 03:14:49;;;;;;;8.80;5.17;;;26.10;53.80;;;;;;5032223;28;20198;-64
2023/10/14 03:17:24;;;;;;;11.00;4.90;;;26.00;54.10;;;;;;5049915;28;20209;-64
2023/10/14 03:19:53;;;;;;;8.63;5.40;;;25.90;54.00;;;;;;5070173;28;20234;-64
2023/10/14 03:22:23;;;;;;;7.00;4.97;;;25.90;54.80;;;;;;5052488;28;20221;-64
2023/10/14 03:24:51;;;;;;;6.77;5.60;;;25.90;56.10;;;;;;5054280;28;20222;-64
2023/10/14 03:27:20;;;;;;;11.40;6.27;;;25.70;56.60;;;;;;5066725;28;20535;-64
2023/10/14 03:29:54;;;;;;;10.27;6.17;;;25.40;59.10;;;;;;5053081;28;20209;-63
2023/10/14 03:32:32;;;;;;;5.20;4.03;;;24.90;63.80;;;;;;5065044;28;20240;-64
2023/10/14 03:35:03;;;;;;;6.43;3.57;;;24.30;66.30;;;;;;5059719;28;20683;-64
2023/10/14 03:37:35;;;;;;;10.97;3.60;;;23.60;66.10;;;;;;5069519;28;20299;-64
2023/10/14 03:42:52;;;;;;;7.80;3.03;;;23.20;68.20;;;;;;5068394;28;20217;-63
2023/10/14 03:45:22;;;;;;;6.47;3.10;;;23.00;68.70;;;;;;5049856;28;20264;-64
2023/10/14 03:47:52;;;;;;;4.70;2.77;;;22.90;68.90;;;;;;5067969;28;20579;-64
2023/10/14 03:50:23;;;;;;;5.87;3.17;;;22.60;71.00;;;;;;5059610;28;20202;-63
2023/10/14 03:52:53;;;;;;;5.73;3.10;;;22.40;71.10;;;;;;5051087;28;20237;-63
2023/10/14 03:55:24;;;;;;;8.07;3.70;;;22.40;71.40;;;;;;5051145;28;20205;-63
2023/10/14 03:57:53;;;;;;;8.90;3.73;;;22.40;71.80;;;;;;5051648;28;20209;-64
2023/10/14 04:00:28;;;;;;;5.00;2.90;;;22.50;71.60;;;;;;5056574;28;20221;-64
2023/10/14 04:02:57;;;;;;;9.17;3.30;;;22.50;72.90;;;;;;5060241;28;20255;-64
2023/10/14 04:05:27;;;;;;;4.30;3.07;;;22.50;72.50;;;;;;5069179;28;20221;-63
2023/10/14 04:07:54;;;;;;;7.07;3.57;;;22.40;72.70;;;;;;5070549;28;20641;-64
2023/10/14 04:10:23;;;;;;;11.67;3.70;;;22.40;73.00;;;;;;5051156;28;20607;-64
2023/10/14 04:12:54;;;;;;;7.97;3.50;;;22.40;73.20;;;;;;5051200;28;20296;-64
2023/10/14 04:18:12;;;;;;;6.73;3.27;;;22.30;73.70;;;;;;5033389;28;20528;-64
2023/10/14 04:20:46;;;;;;;7.17;3.53;;;22.20;74.10;;;;;;5067140;28;20210;-63
2023/10/14 04:23:26;;;;;;;7.93;3.70;;;22.20;74.90;;;;;;5069941;28;20804;-64
2023/10/14 04:26:02;;;;;;;9.00;3.87;;;22.20;75.20;;;;;;5071429;28;20279;-64
2023/10/14 04:28:31;;;;;;;7.33;3.77;;;22.10;75.70;;;;;;5070091;28;20197;-64
2023/10/14 04:31:06;;;;;;;6.17;3.53;;;22.00;76.00;;;;;;5070894;28;20570;-64
2023/10/14 04:33:44;;;;;;;5.50;3.87;;;22.10;75.70;;;;;;5060604;28;20669;-64
2023/10/14 04:39:25;;;;;;;6.37;3.33;;;22.00;76.10;;;;;;5061230;28;20229;-64
2023/10/14 04:44:53;;;;;;;5.73;3.20;;;21.80;77.20;;;;;;5050387;28;20210;-64
2023/10/14 04:47:27;;;;;;;4.80;2.73;;;21.80;77.30;;;;;;5049949;28;20713;-64
2023/10/14 04:49:56;;;;;;;5.10;2.80;;;21.90;76.90;;;;;;5051496;28;20202;-64
2023/10/14 04:52:26;;;;;;;6.33;3.30;;;21.90;76.90;;;;;;5067791;28;20212;-64
2023/10/14 04:54:54;;;;;;;5.80;3.07;;;22.00;76.50;;;;;;5069587;28;20209;-64
2023/10/14 04:57:23;;;;;;;4.33;3.07;;;22.00;76.70;;;;;;5068717;28;20661;-63
2023/10/14 04:59:53;;;;;;;4.83;2.77;;;22.00;76.60;;;;;;5063884;28;20260;-64
2023/10/14 05:02:24;;;;;;;5.07;3.23;;;22.10;76.60;;;;;;5060625;28;20290;-63
2023/10/14 05:04:52;;;;;;;6.30;3.07;;;22.00;76.90;;;;;;5056152;28;20201;-63
2023/10/14 05:07:20;;;;;;;4.77;3.30;;;21.90;77.00;;;;;;5051710;28;20226;-63
2023/10/14 05:09:56;;;;;;;7.27;3.20;;;21.80;76.90;;;;;;5063875;28;20205;-63
2023/10/14 05:12:25;;;;;;;8.00;2.83;;;21.80;76.90;;;;;;5069928;28;20203;-64
2023/10/14 05:14:55;;;;;;;4.80;2.90;;;21.70;77.50;;;;;;5069710;28;20233;-63
2023/10/14 05:17:27;;;;;;;4.93;3.47;;;21.70;77.10;;;;;;5056453;28;20198;-64
2023/10/14 05:19:58;;;;;;;3.67;2.67;;;21.80;77.00;;;;;;5055126;28;20205;-64
2023/10/14 05:22:37;;;;;;;5.57;2.70;;;21.70;76.90;;;;;;5053646;28;20693;-64
2023/10/14 05:25:09;;;;;;;4.87;2.43;;;21.70;77.30;;;;;;5052798;28;20202;-63
2023/10/14 05:27:54;;;;;;;4.77;2.73;;;21.80;77.30;;;;;;5068981;28;20236;-63
2023/10/14 05:30:22;;;;;;;8.20;3.03;;;21.90;76.40;;;;;;5055452;28;20225;-64
2023/10/14 05:32:49;;;;;;;5.00;2.87;;;21.90;76.00;;;;;;5057726;28;20200;-64
2023/10/14 05:35:16;;;;;;;5.10;2.60;;;21.90;76.00;;;;;;5065163;28;20198;-64
2023/10/14 05:37:45;;;;;;;6.00;3.07;;;21.90;76.10;;;;;;5054092;28;20205;-64
2023/10/14 05:40:14;;;;;;;3.87;2.30;;;21.80;76.60;;;;;;5053925;28;20232;-64
2023/10/14 05:42:45;;;;;;;3.90;2.60;;;21.80;76.50;;;;;;5064515;28;20706;-64
2023/10/14 05:45:13;;;;;;;4.90;2.30;;;21.80;76.30;;;;;;5053624;28;20632;-63
2023/10/14 05:47:42;;;;;;;4.80;2.23;;;21.80;76.30;;;;;;5054328;28;20209;-64
2023/10/14 05:50:14;;;;;;;3.17;2.63;;;21.90;76.10;;;;;;5053742;28;20225;-64
2023/10/14 05:52:46;;;;;;;4.03;2.37;;;22.00;76.10;;;;;;5052902;28;20704;-64
2023/10/14 05:55:19;;;;;;;5.17;2.47;;;21.90;75.80;;;;;;5033330;28;20210;-64
2023/10/14 05:57:47;;;;;;;3.20;2.37;;;21.80;76.40;;;;;;5042873;28;20248;-65
2023/10/14 06:00:25;;;;;;;5.13;2.30;;;21.80;76.00;;;;;;5052597;28;20205;-64
2023/10/14 06:02:53;;;;;;;3.70;2.20;;;22.00;76.00;;;;;;5052417;28;20729;-64
2023/10/14 06:05:24;;;;;;;4.90;2.30;;;22.00;76.00;;;;;;5051036;28;20275;-64
2023/10/14 06:07:59;;;;;;;4.87;2.30;;;22.00;76.20;;;;;;5061368;28;20206;-63
2023/10/14 06:10:29;;;;;;;3.47;2.07;;;21.90;75.80;;;;;;5074725;28;20201;-68
2023/10/14 06:12:57;;;;;;;4.53;2.10;;;21.90;75.90;;;;;;5077311;28;20221;-64
2023/10/14 06:15:25;;;;;;;4.10;2.00;;;21.90;76.20;;;;;;5059668;28;20206;-64
2023/10/14 06:17:55;;;;;;;5.30;2.10;;;21.90;76.10;;;;;;5071964;28;20232;-63
2023/10/14 06:20:24;;;;;;;3.07;2.00;;;21.80;75.80;;;;;;5067768;28;20201;-63
2023/10/14 06:22:57;;;;;;;4.30;2.10;;;21.80;76.10;;;;;;5065446;28;20221;-63
2023/10/14 06:25:24;;;;;;;4.47;2.43;;;21.70;75.90;;;;;;5055177;28;20229;-64
2023/10/14 06:27:50;;;;;;;3.93;2.20;;;21.80;75.90;;;;;;5051010;28;20206;-64
2023/10/14 06:30:21;;;;;;;4.33;1.70;;;21.80;75.60;;;;;;5050479;28;20312;-63
2023/10/14 06:32:49;;;;;;;4.03;1.90;;;21.80;75.60;;;;;;5050619;28;20252;-63
2023/10/14 06:35:17;;;;;;;5.00;2.30;;;21.80;75.40;;;;;;5049808;28;20206;-62
2023/10/14 06:37:45;;;;;;;3.20;1.80;;;21.80;75.30;;;;;;5050264;28;20205;-64
2023/10/14 06:40:18;;;;;;;3.67;1.73;;;21.90;75.40;;;;;;5051859;28;20233;-64
2023/10/14 06:42:49;;;;;;;4.13;1.80;;;21.90;75.20;;;;;;5050328;28;20233;-62
2023/10/14 06:45:20;;;;;;;3.43;1.60;;;22.00;75.00;;;;;;5048909;28;20597;-63
2023/10/14 06:47:51;;;;;;;5.00;1.80;;;22.00;75.00;;;;;;5051010;28;20209;-63
2023/10/14 06:50:23;;;;;;;3.63;1.80;;;22.00;74.70;;;;;;5051471;28;20289;-64
2023/10/14 06:52:53;;;;;;;3.27;1.70;;;22.00;75.00;;;;;;5050197;28;20205;-64
2023/10/14 06:55:22;;;;;;;3.70;1.53;;;22.00;74.90;;;;;;5050588;28;20226;-64
2023/10/14 06:57:53;;;;;;;1.93;1.30;;;22.00;74.90;;;;;;5049896;28;20696;-64
2023/10/14 07:00:29;;;;;;;3.07;1.50;;;22.00;74.90;;;;;;5049793;28;20640;-63
2023/10/14 07:02:57;;;;;;;3.33;1.67;;;22.00;74.50;;;;;;5051747;28;20221;-63
2023/10/14 07:05:24;;;;;;;5.10;1.60;;;22.00;74.20;;;;;;5049661;28;20226;-63
2023/10/14 07:07:52;;;;;;;4.57;1.70;;;22.00;75.00;;;;;;5049803;28;20228;-63
2023/10/14 07:10:27;;;;;;;3.40;1.50;;;21.90;74.70;;;;;;5053936;28;20232;-64
2023/10/14 07:12:57;;;;;;;2.70;1.67;;;22.00;74.40;;;;;;5051679;28;20672;-64
2023/10/14 07:15:24;;;;;;;2.83;1.30;;;22.00;74.30;;;;;;5049413;28;20610;-64
2023/10/14 07:17:54;;;;;;;4.30;1.53;;;22.00;74.30;;;;;;5049727;28;20209;-63
2023/10/14 07:20:22;;;;;;;2.60;1.40;;;22.10;74.20;;;;;;5066964;28;20201;-64
2023/10/14 07:22:49;;;;;;;3.77;1.50;;;22.20;74.10;;;;;;5049410;28;20205;-64
2023/10/14 07:25:19;;;;;;;3.80;1.80;;;22.20;73.70;;;;;;5061491;28;20225;-63
2023/10/14 07:27:51;;;;;;;3.10;1.27;;;22.30;73.80;;;;;;5069036;28;20209;-63
2023/10/14 07:30:19;;;;;;;2.53;1.63;;;22.20;75.20;;;;;;5069222;28;20259;-64
2023/10/14 07:32:47;;;;;;;1.70;1.30;;;22.00;76.20;;;;;;5070324;28;20296;-64
2023/10/14 07:35:18;;;;;;;1.83;1.13;;;21.90;77.50;;;;;;5070265;28;20229;-63
2023/10/14 07:37:48;;;;;;;2.67;1.30;;;21.70;78.40;;;;;;5070808;28;20205;-64
2023/10/14 07:40:23;;;;;;;2.17;1.20;;;21.60;79.30;;;;;;5069661;28;20205;-64
2023/10/14 07:42:54;;;;;;;6.30;1.57;;;21.50;79.70;;;;;;5070292;28;20204;-64
2023/10/14 07:45:24;;;;;;;1.93;1.00;;;21.30;83.10;;;;;;5070282;28;20303;-64
2023/10/14 07:47:55;;;;;;;1.27;0.90;;;21.20;81.30;;;;;;5064768;28;20328;-63
2023/10/14 07:50:22;;;;;;;2.90;1.20;;;21.10;80.80;;;;;;5049610;28;20205;-64
2023/10/14 07:52:49;;;;;;;0.77;0.73;;;21.10;80.90;;;;;;5070251;28;20211;-63
2023/10/14 07:55:19;;;;;;;1.07;0.93;;;21.00;81.20;;;;;;5070445;28;20233;-64
2023/10/14 07:57:48;;;;;;;2.37;1.30;;;20.90;81.20;;;;;;5069701;28;20251;-64
2023/10/14 08:00:18;;;;;;;0.90;0.57;;;20.90;81.90;;;;;;5070369;28;20302;-64
2023/10/14 08:02:45;;;;;;;2.43;1.07;;;20.90;82.30;;;;;;5068445;28;20657;-64
2023/10/14 08:05:12;;;;;;;1.67;1.13;;;20.70;82.90;;;;;;5069718;28;20292;-64
2023/10/14 08:07:44;;;;;;;1.77;0.83;;;20.70;83.20;;;;;;5070117;28;20233;-64
2023/10/14 08:10:22;;;;;;;1.37;1.10;;;20.70;84.40;;;;;;5064504;28;20201;-64
2023/10/14 08:12:53;;;;;;;1.93;0.70;;;20.80;83.50;;;;;;5068808;28;20220;-64
2023/10/14 08:15:22;;;;;;;0.70;0.70;;;20.70;83.90;;;;;;5058210;28;20296;-64
2023/10/14 08:17:50;;;;;;;1.77;1.00;;;20.80;84.00;;;;;;5050284;28;20202;-64
2023/10/14 08:20:19;;;;;;;1.60;1.00;;;20.70;84.00;;;;;;5049872;28;20237;-64
2023/10/14 08:22:50;;;;;;;2.13;1.10;;;20.60;84.70;;;;;;5050224;28;20620;-64
2023/10/14 08:25:18;;;;;;;1.97;0.90;;;20.60;85.30;;;;;;5054693;28;20208;-64
2023/10/14 08:27:47;;;;;;;1.50;1.00;;;20.50;86.30;;;;;;5055701;28;20261;-63
2023/10/14 08:30:16;;;;;;;1.53;0.90;;;20.40;86.70;;;;;;5050518;28;20233;-63
2023/10/14 08:32:46;;;;;;;2.40;1.00;;;20.30;87.10;;;;;;5049534;28;20230;-63
2023/10/14 08:35:17;;;;;;;1.40;0.90;;;20.40;87.00;;;;;;5050096;28;20230;-63
2023/10/14 08:37:47;;;;;;;1.73;1.03;;;20.60;86.70;;;;;;5051891;28;20206;-64
2023/10/14 08:40:17;;;;;;;1.30;0.90;;;20.70;87.50;;;;;;5067351;28;20201;-64
2023/10/14 08:42:49;;;;;;;2.97;0.97;;;20.90;87.30;;;;;;5063235;28;20205;-63
2023/10/14 08:45:17;;;;;;;2.80;0.90;;;21.10;86.40;;;;;;5049763;28;20230;-63
2023/10/14 08:47:49;;;;;;;2.23;1.00;;;21.10;85.70;;;;;;5049381;28;20216;-64
2023/10/14 08:50:17;;;;;;;3.10;0.93;;;21.10;86.10;;;;;;5053123;28;20264;-64
2023/10/14 08:52:46;;;;;;;1.70;1.27;;;21.10;86.00;;;;;;5072457;28;20616;-63
2023/10/14 08:55:15;;;;;;;1.20;0.90;;;21.10;86.20;;;;;;5073602;28;20226;-64
2023/10/14 08:57:44;;;;;;;1.40;1.10;;;21.20;86.00;;;;;;5072639;28;20235;-64
2023/10/14 09:00:12;;;;;;;1.33;0.93;;;21.30;85.70;;;;;;5073289;28;20240;-64
2023/10/14 09:02:40;;;;;;;4.90;1.80;;;21.40;85.60;;;;;;5073463;28;20205;-64
2023/10/14 09:05:11;;;;;;;1.30;1.20;;;21.50;86.60;;;;;;5072071;28;20216;-64
2023/10/14 09:07:39;;;;;;;2.73;1.33;;;21.50;85.90;;;;;;5066655;28;20212;-64
2023/10/14 09:10:07;;;;;;;3.47;1.43;;;21.50;86.00;;;;;;5053596;28;20677;-64
2023/10/14 09:12:34;;;;;;;2.20;1.60;;;21.50;86.40;;;;;;5058024;28;20212;-63
2023/10/14 09:15:01;;;;;;;2.37;1.30;;;21.40;86.00;;;;;;5053375;28;20228;-64
2023/10/14 09:17:29;;;;;;;2.13;1.17;;;21.40;86.10;;;;;;5053919;28;20212;-64
2023/10/14 09:19:56;;;;;;;1.87;1.20;;;21.30;86.00;;;;;;5042942;28;20214;-63
2023/10/14 09:22:26;;;;;;;1.30;1.20;;;21.30;85.80;;;;;;5052206;28;20314;-64
2023/10/14 09:24:54;;;;;;;1.20;0.83;;;21.30;85.60;;;;;;5059005;28;20197;-63
2023/10/14 09:27:21;;;;;;;1.53;1.30;;;21.30;85.70;;;;;;5073827;28;20205;-63
2023/10/14 09:29:49;;;;;;;2.33;1.20;;;21.30;85.80;;;;;;5073444;28;20204;-64
2023/10/14 09:32:17;;;;;;;1.43;1.20;;;21.30;85.70;;;;;;5054419;28;20689;-63
2023/10/14 09:34:44;;;;;;;2.13;0.97;;;21.30;85.90;;;;;;5073855;28;20232;-64
2023/10/14 09:37:12;;;;;;;1.43;1.00;;;21.30;86.00;;;;;;5066553;28;20225;-63
2023/10/14 09:39:44;;;;;;;1.20;0.93;;;21.30;85.70;;;;;;5053366;28;20213;-62
2023/10/14 09:42:12;;;;;;;2.27;1.20;;;21.30;85.90;;;;;;5053842;28;20205;-63
2023/10/14 09:44:43;;;;;;;2.30;1.20;;;21.30;85.60;;;;;;5053065;28;20198;-63
2023/10/14 09:47:13;;;;;;;2.53;0.97;;;21.40;85.30;;;;;;5053180;28;20582;-64
2023/10/14 09:49:40;;;;;;;1.33;1.00;;;21.40;85.20;;;;;;5053408;28;20264;-64
2023/10/14 09:52:14;;;;;;;2.90;1.10;;;21.40;84.80;;;;;;5053346;28;20233;-64
2023/10/14 09:54:43;;;;;;;2.13;1.00;;;21.40;84.90;;;;;;5053370;28;20279;-63
2023/10/14 09:57:11;;;;;;;2.43;1.20;;;21.30;85.90;;;;;;5052793;28;20678;-63
2023/10/14 09:59:41;;;;;;;2.20;0.93;;;21.20;86.10;;;;;;5052229;28;20210;-64
2023/10/14 10:02:09;;;;;;;1.40;1.07;;;21.10;86.40;;;;;;5053490;28;20683;-63
2023/10/14 10:04:42;;;;;;;1.80;1.17;;;21.10;86.00;;;;;;5053706;28;20287;-64
2023/10/14 10:07:22;;;;;;;2.17;1.10;;;21.10;86.30;;;;;;5056685;28;20220;-64
2023/10/14 10:10:14;;;;;;;5.53;1.20;;;21.30;86.60;;;;;;5057796;28;20205;-64
2023/10/14 10:12:45;;;;;;;1.70;1.23;;;21.40;86.70;;;;;;5023026;28;20202;-64
2023/10/14 10:15:19;;;;;;;1.63;1.03;;;21.30;85.50;;;;;;5053325;28;20349;-64
2023/10/14 10:17:55;;;;;;;1.63;1.00;;;21.20;86.00;;;;;;5052930;28;20622;-63
2023/10/14 10:20:28;;;;;;;1.30;1.20;;;21.20;86.70;;;;;;5053037;28;20296;-64
2023/10/14 10:22:58;;;;;;;1.67;1.30;;;21.20;86.80;;;;;;5056020;28;20573;-64
2023/10/14 10:25:49;;;;;;;2.40;1.27;;;21.20;86.50;;;;;;5052929;28;20719;-64
2023/10/14 10:28:39;;;;;;;1.70;1.20;;;21.20;87.80;;;;;;5052643;28;20580;-64
2023/10/14 10:31:09;;;;;;;2.30;1.47;;;21.10;87.00;;;;;;5052794;28;20209;-64
2023/10/14 10:34:05;;;;;;;1.53;1.00;;;21.10;86.00;;;;;;5055302;28;20244;-64
2023/10/14 10:36:33;;;;;;;1.30;1.20;;;21.10;87.20;;;;;;5032704;28;20241;-65
2023/10/14 10:39:15;;;;;;;2.20;1.20;;;20.90;85.90;;;;;;5032590;28;20656;-64
2023/10/14 10:41:47;;;;;;;1.50;1.20;;;20.70;87.20;;;;;;5031154;28;20753;-65
2023/10/14 10:44:14;;;;;;;2.40;1.20;;;20.50;86.00;;;;;;5032588;28;20210;-64
2023/10/14 10:46:44;;;;;;;1.20;1.10;;;20.40;86.90;;;;;;5032446;28;20272;-64
2023/10/14 10:49:13;;;;;;;1.17;1.07;;;20.50;86.40;;;;;;5033197;28;20718;-64
2023/10/14 10:51:51;;;;;;;2.33;1.40;;;20.60;86.70;;;;;;5055152;28;20456;-64
2023/10/14 10:54:22;;;;;;;2.77;1.40;;;20.70;87.00;;;;;;5035728;28;20233;-64
2023/10/14 10:56:50;;;;;;;1.57;1.47;;;20.70;86.70;;;;;;5072205;28;20213;-64
2023/10/14 10:59:18;;;;;;;3.83;1.40;;;20.70;87.10;;;;;;5061449;28;20229;-64
2023/10/14 11:01:46;;;;;;;1.20;1.10;;;20.70;87.30;;;;;;5051638;28;20265;-64
2023/10/14 11:04:14;;;;;;;1.50;1.40;;;20.70;87.30;;;;;;5052076;28;20201;-64
2023/10/14 11:06:41;;;;;;;2.00;1.20;;;20.70;87.20;;;;;;5051642;28;20298;-64
2023/10/14 11:09:12;;;;;;;1.20;1.10;;;20.60;86.70;;;;;;5051946;28;20206;-64
2023/10/14 11:11:40;;;;;;;1.13;1.03;;;20.50;85.40;;;;;;5051553;28;20259;-64
2023/10/14 11:14:20;;;;;;;1.87;1.20;;;20.40;84.80;;;;;;5053062;28;20307;-64
2023/10/14 11:16:54;;;;;;;0.87;0.87;;;20.30;84.50;;;;;;5053000;28;20267;-64
2023/10/14 11:19:21;;;;;;;2.00;0.90;;;20.30;84.40;;;;;;5051460;28;20228;-64
2023/10/14 11:21:49;;;;;;;1.00;0.90;;;20.30;83.60;;;;;;5050180;28;20197;-64
2023/10/14 11:24:16;;;;;;;1.57;1.07;;;20.40;83.60;;;;;;5056294;28;20204;-64
2023/10/14 11:26:44;;;;;;;0.90;0.90;;;20.40;82.00;;;;;;5065611;28;20676;-64
2023/10/14 11:29:12;;;;;;;1.00;1.00;;;20.40;82.20;;;;;;5071143;28;20206;-64
2023/10/14 11:31:44;;;;;;;1.80;1.10;;;20.40;81.60;;;;;;5071671;28;20634;-64
2023/10/14 11:34:12;;;;;;;1.20;1.10;;;20.40;82.00;;;;;;5069723;28;20325;-64
2023/10/14 11:36:42;;;;;;;2.60;1.10;;;20.30;81.80;;;;;;5063335;28;20681;-64
2023/10/14 11:39:13;;;;;;;0.93;0.93;;;20.30;82.20;;;;;;5051229;28;20232;-64
2023/10/14 11:41:40;;;;;;;1.00;1.00;;;20.20;82.00;;;;;;5052615;28;20789;-64
2023/10/14 11:44:07;;;;;;;1.60;1.20;;;20.30;81.90;;;;;;5051806;28;20213;-64
2023/10/14 11:46:38;;;;;;;1.27;1.17;;;20.30;81.10;;;;;;5054776;28;20233;-64
2023/10/14 11:49:10;;;;;;;1.10;1.10;;;20.30;79.60;;;;;;5051315;28;20572;-64
2023/10/14 11:51:41;;;;;;;1.43;0.97;;;20.20;80.20;;;;;;5051804;28;20212;-64
2023/10/14 11:54:11;;;;;;;1.17;1.00;;;20.20;80.30;;;;;;5051618;28;20300;-64
2023/10/14 11:56:40;;;;;;;1.20;1.00;;;20.20;79.50;;;;;;5050321;28;20255;-64
2023/10/14 11:59:06;;;;;;;1.37;1.27;;;20.30;79.20;;;;;;5051829;28;20638;-64
2023/10/14 12:01:34;;;;;;;1.80;1.10;;;20.30;78.90;;;;;;5064443;28;20220;-64
2023/10/14 12:04:01;;;;;;;1.00;0.83;;;20.40;78.40;;;;;;5070273;28;20202;-64
2023/10/14 12:06:34;;;;;;;1.97;1.13;;;20.30;77.70;;;;;;5069973;28;20282;-64
2023/10/14 12:09:05;;;;;;;1.63;1.23;;;20.20;78.70;;;;;;5070377;28;20623;-63
2023/10/14 12:11:39;;;;;;;1.37;1.10;;;20.30;78.60;;;;;;5049191;28;20198;-64
2023/10/14 12:14:07;;;;;;;2.37;1.10;;;20.30;77.70;;;;;;5037063;28;20205;-63
2023/10/14 12:16:34;;;;;;;3.33;1.10;;;20.30;78.00;;;;;;5070726;28;20213;-63
2023/10/14 12:19:01;;;;;;;1.20;1.03;;;20.20;77.70;;;;;;5070489;28;20709;-62
2023/10/14 12:21:29;;;;;;;2.30;1.00;;;20.20;77.50;;;;;;5060414;28;20293;-64
2023/10/14 12:24:00;;;;;;;1.70;1.10;;;20.20;77.70;;;;;;5051664;28;20741;-64
2023/10/14 12:26:30;;;;;;;1.20;1.10;;;20.20;79.00;;;;;;5054796;28;20674;-64
2023/10/14 12:28:57;;;;;;;1.53;1.20;;;20.20;78.30;;;;;;5074673;28;20291;-63
2023/10/14 12:31:27;;;;;;;1.53;1.17;;;20.40;77.30;;;;;;5072038;28;20205;-63
2023/10/14 12:33:54;;;;;;;1.03;1.00;;;20.60;75.50;;;;;;5074154;28;20258;-64
2023/10/14 12:36:26;;;;;;;1.90;1.20;;;20.60;75.20;;;;;;5074026;28;20225;-64
2023/10/14 12:38:54;;;;;;;2.23;1.30;;;20.50;74.60;;;;;;5073922;28;20636;-64
2023/10/14 12:41:22;;;;;;;1.53;1.20;;;20.50;74.20;;;;;;5072742;28;20300;-64
2023/10/14 12:43:51;;;;;;;1.60;1.20;;;20.50;74.40;;;;;;5073918;28;20224;-64
2023/10/14 12:46:22;;;;;;;3.03;1.30;;;20.60;74.00;;;;;;5073667;28;20226;-64
2023/10/14 12:48:50;;;;;;;2.47;1.37;;;20.40;72.80;;;;;;5073734;28;20296;-64
2023/10/14 12:51:21;;;;;;;1.40;1.23;;;20.30;74.00;;;;;;5073583;28;20563;-64
2023/10/14 12:53:48;;;;;;;1.77;1.30;;;20.30;73.70;;;;;;5072136;28;20216;-64
2023/10/14 12:56:20;;;;;;;2.10;1.27;;;20.50;74.00;;;;;;5057908;28;20226;-64
2023/10/14 12:58:48;;;;;;;2.50;1.60;;;20.60;73.20;;;;;;5053557;28;20251;-63
2023/10/14 13:01:17;;;;;;;2.23;1.63;;;20.80;73.70;;;;;;5053760;28;20205;-63
2023/10/14 13:03:46;;;;;;;2.60;1.50;;;20.90;73.80;;;;;;5053957;28;20242;-62
2023/10/14 13:06:13;;;;;;;1.93;1.60;;;21.10;73.80;;;;;;5053747;28;20222;-64
2023/10/14 13:08:40;;;;;;;4.13;1.47;;;21.40;73.60;;;;;;5052927;28;20206;-64
2023/10/14 13:11:08;;;;;;;3.40;1.80;;;22.00;72.40;;;;;;5054063;28;20230;-64
2023/10/14 13:13:36;;;;;;;3.53;1.60;;;22.30;70.40;;;;;;5042365;28;20542;-64